createdAt,value
2024-05-09T00:00:45.996Z,4.25
2024-05-09T00:03:34.096Z,3.70
2024-05-09T00:06:02.757Z,4.85
2024-05-09T00:08:30.972Z,6.00
2024-05-09T00:10:59.518Z,5.88
2024-05-09T00:13:27.515Z,6.68
2024-05-09T00:15:55.905Z,11.85
2024-05-09T00:18:24.241Z,9.50
2024-05-09T00:20:52.929Z,8.73
2024-05-09T00:23:21.006Z,7.82
2024-05-09T00:25:49.462Z,11.10
2024-05-09T00:28:17.353Z,6.00
2024-05-09T00:30:45.690Z,7.20
2024-05-09T00:33:13.993Z,7.68
2024-05-09T00:35:42.727Z,7.53
2024-05-09T00:38:11.274Z,6.40
2024-05-09T00:40:42.416Z,6.70
2024-05-09T00:43:12.940Z,7.32
2024-05-09T00:45:42.552Z,7.57
2024-05-09T00:48:13.289Z,6.68
2024-05-09T00:50:45.122Z,7.50
2024-05-09T00:53:13.996Z,10.35
2024-05-09T00:55:42.952Z,12.30
2024-05-09T00:58:11.775Z,10.25
2024-05-09T01:00:41.688Z,11.27
2024-05-09T01:03:12.497Z,11.05
2024-05-09T01:05:45.637Z,15.48
2024-05-09T01:08:13.999Z,12.38
2024-05-09T01:10:44.971Z,6.50
2024-05-09T01:13:14.205Z,6.35
2024-05-09T01:15:42.893Z,5.22
2024-05-09T01:18:12.751Z,4.60
2024-05-09T01:20:44.591Z,3.78
2024-05-09T01:23:15.387Z,3.75
2024-05-09T01:25:46.561Z,5.40
2024-05-09T01:28:16.455Z,5.72
2024-05-09T01:33:13.425Z,5.72
2024-05-09T01:35:43.010Z,8.50
2024-05-09T01:38:17.525Z,6.28
2024-05-09T01:40:47.155Z,5.68
2024-05-09T01:43:16.096Z,5.88
2024-05-09T01:45:44.405Z,6.93
2024-05-09T01:48:12.506Z,5.70
2024-05-09T01:50:42.866Z,7.82
2024-05-09T01:53:12.509Z,11.60
2024-05-09T01:58:09.917Z,7.07
2024-05-09T02:00:42.527Z,8.98
2024-05-09T02:03:15.281Z,7.95
2024-05-09T02:05:46.894Z,7.03
2024-05-09T02:08:17.307Z,7.53
2024-05-09T02:10:47.589Z,8.23
2024-05-09T02:13:16.577Z,8.32
2024-05-09T02:15:45.171Z,7.18
2024-05-09T02:18:13.712Z,6.80
2024-05-09T02:20:43.288Z,6.68
2024-05-09T02:23:12.260Z,6.20
2024-05-09T02:25:42.061Z,5.55
2024-05-09T02:28:10.287Z,7.63
2024-05-09T02:30:41.384Z,7.75
2024-05-09T02:33:12.966Z,7.95
2024-05-09T02:35:44.060Z,7.80
2024-05-09T02:40:41.265Z,7.70
2024-05-09T02:43:11.096Z,5.88
2024-05-09T02:45:40.721Z,8.50
2024-05-09T02:48:11.729Z,9.23
2024-05-09T02:50:41.207Z,9.40
2024-05-09T02:53:10.077Z,10.00
2024-05-09T02:55:42.647Z,9.10
2024-05-09T02:58:11.238Z,7.38
2024-05-09T03:00:42.068Z,7.38
2024-05-09T03:03:13.932Z,8.23
2024-05-09T03:05:45.408Z,7.65
2024-05-09T03:08:13.895Z,6.80
2024-05-09T03:10:42.827Z,7.25
2024-05-09T03:13:12.756Z,5.95
2024-05-09T03:15:42.744Z,4.93
2024-05-09T03:18:11.672Z,4.32
2024-05-09T03:20:40.856Z,3.60
2024-05-09T03:23:10.042Z,3.45
2024-05-09T03:25:39.286Z,3.25
2024-05-09T03:28:07.519Z,3.88
2024-05-09T03:30:41.299Z,3.30
2024-05-09T03:33:12.931Z,5.00
2024-05-09T03:35:42.393Z,3.95
2024-05-09T03:38:10.363Z,5.32
2024-05-09T03:40:44.859Z,3.35
2024-05-09T03:43:13.509Z,13.27
2024-05-09T03:45:42.948Z,24.42
2024-05-09T03:48:11.262Z,15.40
2024-05-09T03:50:40.034Z,8.00
2024-05-09T03:53:11.087Z,5.57
2024-05-09T03:55:39.942Z,4.90
2024-05-09T03:58:08.299Z,5.60
2024-05-09T04:00:39.501Z,3.87
2024-05-09T04:03:11.139Z,3.67
2024-05-09T04:05:42.744Z,3.28
2024-05-09T04:08:16.712Z,3.30
2024-05-09T04:10:45.189Z,4.40
2024-05-09T04:13:13.145Z,4.15
2024-05-09T04:15:41.740Z,3.00
2024-05-09T04:18:09.801Z,2.78
2024-05-09T04:20:40.617Z,2.85
2024-05-09T04:23:13.804Z,2.97
2024-05-09T04:25:45.076Z,2.80
2024-05-09T04:28:13.758Z,3.33
2024-05-09T04:30:42.769Z,2.47
2024-05-09T04:33:13.339Z,3.00
2024-05-09T04:35:44.053Z,3.70
2024-05-09T04:38:16.068Z,3.53
2024-05-09T04:40:44.812Z,3.33
2024-05-09T04:43:17.538Z,3.30
2024-05-09T04:45:46.437Z,2.85
2024-05-09T04:48:14.610Z,3.13
2024-05-09T04:50:43.172Z,2.78
2024-05-09T04:53:15.602Z,3.03
2024-05-09T04:55:44.058Z,2.53
2024-05-09T04:58:12.524Z,2.85
2024-05-09T05:00:41.765Z,2.88
2024-05-09T05:03:13.869Z,2.73
2024-05-09T05:05:46.036Z,2.60
2024-05-09T05:08:15.681Z,2.80
2024-05-09T05:10:44.893Z,2.92
2024-05-09T05:13:17.741Z,2.85
2024-05-09T05:15:47.468Z,3.50
2024-05-09T05:18:16.273Z,3.33
2024-05-09T05:20:45.118Z,3.53
2024-05-09T05:23:13.800Z,2.88
2024-05-09T05:25:42.696Z,3.10
2024-05-09T05:28:10.898Z,2.55
2024-05-09T05:30:39.539Z,3.60
2024-05-09T05:33:08.016Z,2.92
2024-05-09T05:35:37.094Z,2.80
2024-05-09T05:38:05.271Z,3.00
2024-05-09T05:40:37.070Z,3.67
2024-05-09T05:43:08.570Z,4.03
2024-05-09T05:45:37.056Z,3.75
2024-05-09T05:48:06.330Z,3.17
2024-05-09T05:50:37.611Z,3.20
2024-05-09T05:53:08.413Z,3.40
2024-05-09T05:55:37.958Z,3.15
2024-05-09T05:58:06.207Z,2.80
2024-05-09T06:00:38.521Z,3.55
2024-05-09T06:03:09.623Z,3.70
2024-05-09T06:05:40.448Z,3.60
2024-05-09T06:08:09.420Z,3.33
2024-05-09T06:10:40.244Z,3.45
2024-05-09T06:13:11.661Z,3.05
2024-05-09T06:15:41.102Z,3.13
2024-05-09T06:18:10.831Z,2.70
2024-05-09T06:20:43.290Z,3.13
2024-05-09T06:23:12.865Z,2.90
2024-05-09T06:25:42.527Z,2.50
2024-05-09T06:28:10.892Z,2.38
2024-05-09T06:30:42.435Z,2.92
2024-05-09T06:33:14.415Z,2.47
2024-05-09T06:35:45.202Z,2.83
2024-05-09T06:38:13.420Z,2.55
2024-05-09T06:40:43.820Z,2.65
2024-05-09T06:43:18.152Z,2.80
2024-05-09T06:45:49.188Z,3.60
2024-05-09T06:48:21.272Z,2.90
2024-05-09T06:50:50.572Z,2.63
2024-05-09T06:53:21.354Z,2.38
2024-05-09T06:55:50.204Z,2.15
2024-05-09T06:58:18.144Z,2.45
2024-05-09T07:00:46.660Z,2.40
2024-05-09T07:03:18.151Z,2.80
2024-05-09T07:05:49.166Z,2.35
2024-05-09T07:08:18.437Z,2.60
2024-05-09T07:10:46.784Z,3.10
2024-05-09T07:13:15.948Z,2.88
2024-05-09T07:15:44.252Z,2.85
2024-05-09T07:18:13.968Z,2.70
2024-05-09T07:20:42.710Z,2.70
2024-05-09T07:23:11.638Z,3.08
2024-05-09T07:25:40.422Z,2.60
2024-05-09T07:28:12.318Z,2.70
2024-05-09T07:30:40.297Z,2.78
2024-05-09T07:33:09.031Z,2.40
2024-05-09T07:35:37.611Z,2.70
2024-05-09T07:38:06.227Z,2.30
2024-05-09T07:40:36.835Z,2.80
2024-05-09T07:43:05.889Z,2.60
2024-05-09T07:53:37.115Z,2.47
2024-05-09T07:55:59.226Z,3.05
2024-05-09T07:58:28.072Z,2.85
2024-05-09T08:00:56.309Z,2.60
2024-05-09T08:03:24.857Z,3.35
2024-05-09T08:05:54.402Z,2.92
2024-05-09T08:08:23.437Z,2.92
2024-05-09T08:10:51.735Z,2.85
2024-05-09T08:13:20.221Z,2.90
2024-05-09T08:15:49.836Z,2.58
2024-05-09T08:18:19.093Z,2.50
2024-05-09T08:20:49.309Z,2.67
2024-05-09T08:23:18.134Z,3.22
2024-05-09T08:25:46.120Z,2.88
2024-05-09T08:28:15.342Z,2.78
2024-05-09T08:30:44.309Z,4.63
2024-05-09T08:33:13.040Z,3.63
2024-05-09T08:35:41.266Z,1.90
2024-05-09T08:38:09.896Z,3.50
2024-05-09T08:40:38.460Z,4.72
2024-05-09T08:43:10.048Z,3.90
2024-05-09T08:45:43.658Z,2.92
2024-05-09T08:48:15.829Z,3.13
2024-05-09T08:50:45.601Z,3.00
2024-05-09T08:53:15.529Z,2.72
2024-05-09T08:55:44.501Z,3.40
2024-05-09T08:58:18.414Z,3.10
2024-05-09T09:00:46.974Z,3.42
2024-05-09T09:03:20.073Z,3.30
2024-05-09T09:06:03.093Z,2.90
2024-05-09T09:08:31.623Z,3.40
2024-05-09T09:10:59.827Z,2.70
2024-05-09T09:13:28.669Z,2.20
2024-05-09T09:16:00.301Z,2.75
2024-05-09T09:18:30.398Z,3.38
2024-05-09T09:23:29.942Z,3.30
2024-05-09T09:26:01.757Z,3.30
2024-05-09T09:28:30.419Z,3.75
2024-05-09T09:31:03.392Z,3.70
2024-05-09T09:33:32.651Z,5.22
2024-05-09T09:36:01.474Z,3.93
2024-05-09T09:38:32.217Z,2.92
2024-05-09T09:41:02.412Z,3.10
2024-05-09T09:43:31.717Z,3.25
2024-05-09T09:46:02.170Z,3.30
2024-05-09T09:48:32.179Z,3.00
2024-05-09T09:51:00.535Z,5.70
2024-05-09T09:53:29.457Z,3.33
2024-05-09T09:55:57.853Z,3.03
2024-05-09T09:58:28.561Z,3.53
2024-05-09T10:00:56.986Z,3.20
2024-05-09T10:03:25.781Z,3.20
2024-05-09T10:05:54.422Z,3.17
2024-05-09T10:08:24.063Z,3.33
2024-05-09T10:10:52.461Z,3.47
2024-05-09T10:13:21.289Z,3.40
2024-05-09T10:15:54.107Z,3.13
2024-05-09T10:18:29.186Z,2.50
2024-05-09T10:21:00.039Z,1.95
2024-05-09T10:23:28.449Z,3.03
2024-05-09T10:25:57.300Z,2.75
2024-05-09T10:28:29.201Z,3.20
2024-05-09T10:31:00.987Z,3.20
2024-05-09T10:33:39.296Z,2.90
2024-05-09T10:36:14.362Z,1.60
2024-05-09T10:38:43.783Z,3.33
2024-05-09T10:41:12.056Z,3.17
2024-05-09T10:43:43.872Z,1.88
2024-05-09T10:46:12.365Z,1.95
2024-05-09T10:48:42.850Z,3.27
2024-05-09T10:51:11.275Z,2.65
2024-05-09T10:53:43.474Z,3.17
2024-05-09T10:56:11.866Z,2.00
2024-05-09T10:58:40.109Z,1.73
2024-05-09T11:01:09.237Z,1.75
2024-05-09T11:03:39.161Z,2.17
2024-05-09T11:06:09.953Z,1.80
2024-05-09T11:08:38.859Z,1.92
2024-05-09T11:11:08.179Z,3.05
2024-05-09T11:13:38.278Z,2.85
2024-05-09T11:16:07.750Z,2.95
2024-05-09T11:21:13.542Z,1.88
2024-05-09T11:23:42.330Z,2.00
2024-05-09T11:26:11.163Z,1.60
2024-05-09T11:28:39.725Z,2.20
2024-05-09T11:31:09.060Z,2.17
2024-05-09T11:33:39.071Z,1.83
2024-05-09T11:36:07.995Z,2.78
2024-05-09T11:38:36.740Z,2.47
2024-05-09T11:41:05.448Z,2.97
2024-05-09T11:43:34.212Z,2.83
2024-05-09T11:46:03.608Z,1.85
2024-05-09T11:48:32.829Z,1.70
2024-05-09T11:51:00.875Z,2.70
2024-05-09T11:53:29.254Z,1.50
2024-05-09T11:55:57.180Z,2.63
2024-05-09T11:58:25.624Z,1.73
2024-05-09T12:00:53.701Z,1.80
2024-05-09T12:03:22.361Z,1.65
2024-05-09T12:05:50.548Z,1.77
2024-05-09T12:08:18.986Z,1.90
2024-05-09T12:10:47.666Z,2.78
2024-05-09T12:13:16.160Z,2.00
2024-05-09T12:15:44.241Z,3.15
2024-05-09T12:18:12.760Z,2.00
2024-05-09T12:20:40.966Z,2.75
2024-05-09T12:23:10.422Z,1.77
2024-05-09T12:25:39.845Z,1.70
2024-05-09T12:28:09.203Z,1.80
2024-05-09T12:30:40.138Z,2.00
2024-05-09T12:33:13.509Z,3.50
2024-05-09T12:35:44.507Z,1.55
2024-05-09T12:38:18.821Z,2.40
2024-05-09T12:40:47.082Z,1.83
2024-05-09T12:43:15.720Z,2.08
2024-05-09T12:45:44.004Z,2.65
2024-05-09T12:48:13.337Z,1.63
2024-05-09T12:50:42.298Z,1.65
2024-05-09T12:53:10.778Z,2.78
2024-05-09T12:55:45.135Z,2.30
2024-05-09T12:58:22.777Z,1.65
2024-05-09T13:00:52.626Z,1.60
2024-05-09T13:03:22.289Z,1.60
2024-05-09T13:05:51.233Z,1.42
2024-05-09T13:08:20.463Z,1.70
2024-05-09T13:10:48.920Z,1.60
2024-05-09T13:13:17.669Z,1.52
2024-05-09T13:15:45.655Z,1.50
2024-05-09T13:18:14.293Z,1.50
2024-05-09T13:20:42.378Z,1.88
2024-05-09T13:23:10.770Z,1.77
2024-05-09T13:25:39.032Z,1.60
2024-05-09T13:28:08.145Z,1.60
2024-05-09T13:30:40.650Z,2.75
2024-05-09T13:33:12.203Z,2.00
2024-05-09T13:35:47.641Z,2.95
2024-05-09T13:38:20.749Z,1.52
2024-05-09T13:40:50.253Z,2.30
2024-05-09T13:45:47.507Z,2.45
2024-05-09T13:48:16.099Z,1.52
2024-05-09T13:50:44.324Z,1.95
2024-05-09T13:53:12.660Z,1.90
2024-05-09T13:55:41.055Z,1.88
2024-05-09T13:58:34.456Z,1.88
2024-05-09T14:01:10.461Z,2.83
2024-05-09T14:03:42.047Z,1.50
2024-05-09T14:06:12.993Z,1.60
2024-05-09T14:08:41.746Z,1.88
2024-05-09T14:11:09.779Z,3.10
2024-05-09T14:13:38.551Z,1.83
2024-05-09T14:16:07.987Z,2.38
2024-05-09T14:18:36.608Z,3.20
2024-05-09T14:21:04.648Z,1.70
2024-05-09T14:23:33.054Z,1.42
2024-05-09T14:26:01.004Z,1.40
2024-05-09T14:28:29.436Z,1.63
2024-05-09T14:30:57.466Z,1.63
2024-05-09T14:33:27.156Z,1.55
2024-05-09T14:35:55.433Z,2.65
2024-05-09T14:38:24.608Z,1.57
2024-05-09T14:40:53.114Z,1.27
2024-05-09T14:43:21.724Z,1.70
2024-05-09T14:45:49.979Z,1.63
2024-05-09T14:48:20.098Z,2.03
2024-05-09T14:53:16.805Z,2.53
2024-05-09T14:55:45.327Z,1.90
2024-05-09T14:58:14.058Z,1.80
2024-05-09T15:00:46.645Z,1.98
2024-05-09T15:03:22.583Z,1.65
2024-05-09T15:05:51.589Z,2.10
2024-05-09T15:08:20.632Z,2.50
2024-05-09T15:10:50.255Z,1.67
2024-05-09T15:13:19.758Z,1.50
2024-05-09T15:15:48.320Z,3.10
2024-05-09T15:18:17.392Z,1.73
2024-05-09T15:20:45.804Z,1.77
2024-05-09T15:23:14.423Z,2.70
2024-05-09T15:25:44.322Z,2.00
2024-05-09T15:28:12.801Z,1.60
2024-05-09T15:30:44.147Z,2.13
2024-05-09T15:33:15.329Z,2.38
2024-05-09T15:35:43.270Z,2.45
2024-05-09T15:38:11.741Z,2.75
2024-05-09T15:40:40.974Z,2.92
2024-05-09T15:43:11.282Z,2.47
2024-05-09T15:45:41.101Z,2.30
2024-05-09T15:48:10.752Z,2.83
2024-05-09T15:50:41.675Z,2.33
2024-05-09T15:53:13.598Z,3.00
2024-05-09T15:58:10.668Z,4.13
2024-05-09T16:00:42.117Z,2.70
2024-05-09T16:03:13.861Z,2.90
2024-05-09T16:05:46.983Z,2.95
2024-05-09T16:08:16.619Z,2.42
2024-05-09T16:10:48.262Z,2.72
2024-05-09T16:13:17.565Z,2.80
2024-05-09T16:15:46.391Z,3.58
2024-05-09T16:18:15.081Z,5.57
2024-05-09T16:20:44.861Z,3.28
2024-05-09T16:23:14.823Z,4.15
2024-05-09T16:25:45.511Z,3.08
2024-05-09T16:28:14.102Z,3.70
2024-05-09T16:30:42.342Z,3.33
2024-05-09T16:33:11.979Z,3.20
2024-05-09T16:35:40.294Z,3.22
2024-05-09T16:38:08.966Z,3.20
2024-05-09T16:40:40.406Z,3.22
2024-05-09T16:43:11.043Z,4.28
2024-05-09T16:45:40.128Z,4.53
2024-05-09T16:48:09.209Z,5.13
2024-05-09T16:50:37.428Z,5.95
2024-05-09T16:53:07.164Z,4.60
2024-05-09T16:55:36.325Z,4.68
2024-05-09T16:58:06.998Z,4.80
2024-05-09T17:00:41.079Z,3.75
2024-05-09T17:03:14.778Z,4.32
2024-05-09T17:05:46.443Z,3.92
2024-05-09T17:08:16.532Z,3.38
2024-05-09T17:10:45.859Z,5.47
2024-05-09T17:13:14.576Z,3.70
2024-05-09T17:15:42.719Z,4.60
2024-05-09T17:18:11.183Z,4.75
2024-05-09T17:20:39.186Z,4.32
2024-05-09T17:23:14.035Z,4.53
2024-05-09T17:25:42.984Z,4.43
2024-05-09T17:28:12.295Z,5.00
2024-05-09T17:30:42.079Z,5.53
2024-05-09T17:33:12.845Z,7.20
2024-05-09T17:35:42.639Z,4.80
2024-05-09T17:38:10.958Z,4.47
2024-05-09T17:40:39.759Z,4.60
2024-05-09T17:43:10.231Z,4.88
2024-05-09T17:45:42.617Z,5.53
2024-05-09T17:48:12.057Z,6.38
2024-05-09T17:50:41.593Z,6.00
2024-05-09T17:53:11.243Z,4.72
2024-05-09T17:55:39.904Z,5.28
2024-05-09T17:58:08.662Z,5.80
2024-05-09T18:00:40.160Z,5.55
2024-05-09T18:03:12.664Z,4.20
2024-05-09T18:05:42.898Z,4.10
2024-05-09T18:08:13.119Z,4.15
2024-05-09T18:10:41.756Z,4.35
2024-05-09T18:13:11.540Z,3.93
2024-05-09T18:15:40.306Z,4.22
2024-05-09T18:18:09.557Z,5.63
2024-05-09T18:20:43.875Z,4.88
2024-05-09T18:23:16.609Z,4.75
2024-05-09T18:25:46.853Z,4.28
2024-05-09T18:30:44.214Z,6.57
2024-05-09T18:33:13.432Z,6.82
2024-05-09T18:35:45.417Z,5.53
2024-05-09T18:38:14.134Z,12.38
2024-05-09T18:40:44.015Z,11.32
2024-05-09T18:43:14.765Z,14.98
2024-05-09T18:45:43.087Z,19.52
2024-05-09T18:48:12.137Z,22.23
2024-05-09T18:50:41.511Z,22.08
2024-05-09T18:53:12.199Z,20.92
2024-05-09T18:55:41.844Z,15.68
2024-05-09T18:58:10.235Z,19.43
2024-05-09T19:00:41.182Z,18.55
2024-05-09T19:03:13.919Z,28.45
2024-05-09T19:05:44.651Z,16.17
2024-05-09T19:08:15.174Z,19.63
2024-05-09T19:10:45.674Z,24.92
2024-05-09T19:13:15.102Z,22.42
2024-05-09T19:15:44.015Z,23.25
2024-05-09T19:18:17.400Z,19.73
2024-05-09T19:20:45.587Z,24.65
2024-05-09T19:23:14.081Z,19.23
2024-05-09T19:25:42.008Z,28.33
2024-05-09T19:28:10.647Z,22.55
2024-05-09T19:30:41.745Z,24.02
2024-05-09T19:33:13.415Z,21.30
2024-05-09T19:35:42.972Z,26.45
2024-05-09T19:38:12.165Z,26.45
2024-05-09T19:40:40.443Z,23.05
2024-05-09T19:43:09.684Z,24.73
2024-05-09T19:45:38.098Z,24.40
2024-05-09T19:48:07.131Z,20.60
2024-05-09T19:50:41.848Z,19.40
2024-05-09T19:53:13.908Z,17.70
2024-05-09T19:55:42.781Z,15.50
2024-05-09T19:58:12.814Z,18.60
2024-05-09T20:00:43.244Z,21.15
2024-05-09T20:03:16.320Z,23.23
2024-05-09T20:05:47.779Z,18.15
2024-05-09T20:08:17.071Z,18.75
2024-05-09T20:10:45.232Z,23.80
2024-05-09T20:13:14.358Z,23.25
2024-05-09T20:15:42.401Z,20.55
2024-05-09T20:18:11.146Z,19.73
2024-05-09T20:20:42.410Z,17.05
2024-05-09T20:23:13.079Z,14.55
2024-05-09T20:25:41.550Z,14.05
2024-05-09T20:28:10.765Z,15.05
2024-05-09T20:30:39.195Z,17.75
2024-05-09T20:33:08.957Z,50.65
2024-05-09T20:35:37.777Z,30.77
2024-05-09T20:38:06.318Z,15.35
2024-05-09T20:40:37.766Z,15.48
2024-05-09T20:43:11.309Z,14.70
2024-05-09T20:45:40.320Z,15.10
2024-05-09T20:48:10.013Z,14.90
2024-05-09T20:50:41.221Z,13.03
2024-05-09T20:53:12.499Z,12.65
2024-05-09T20:55:41.523Z,13.68
2024-05-09T20:58:10.525Z,16.08
2024-05-09T21:00:42.650Z,15.05
2024-05-09T21:03:16.177Z,13.90
2024-05-09T21:05:45.337Z,17.92
2024-05-09T21:08:13.983Z,21.10
2024-05-09T21:10:42.368Z,19.88
2024-05-09T21:13:10.961Z,17.13
2024-05-09T21:15:39.217Z,20.33
2024-05-09T21:18:08.305Z,19.08
2024-05-09T21:20:37.725Z,22.95
2024-05-09T21:23:06.277Z,13.23
2024-05-09T21:25:34.338Z,16.33
2024-05-09T21:28:02.973Z,12.88
2024-05-09T21:30:38.863Z,9.32
2024-05-09T21:33:12.452Z,9.00
2024-05-09T21:35:42.523Z,6.80
2024-05-09T21:38:11.136Z,6.43
2024-05-09T21:40:39.340Z,6.32
2024-05-09T21:43:08.212Z,6.72
2024-05-09T21:45:37.264Z,6.00
2024-05-09T21:48:06.765Z,6.57
2024-05-09T21:50:40.428Z,7.60
2024-05-09T21:53:11.556Z,8.35
2024-05-09T21:55:39.998Z,8.60
2024-05-09T21:58:08.669Z,7.28
2024-05-09T22:00:39.584Z,9.00
2024-05-09T22:03:08.843Z,8.93
2024-05-09T22:05:39.252Z,8.20
2024-05-09T22:08:07.773Z,7.07
2024-05-09T22:10:37.329Z,6.43
2024-05-09T22:13:06.677Z,7.32
2024-05-09T22:18:04.854Z,6.68
2024-05-09T22:20:37.620Z,6.10
2024-05-09T22:23:08.563Z,7.07
2024-05-09T22:25:38.754Z,7.90
2024-05-09T22:28:07.213Z,8.13
2024-05-09T22:30:39.078Z,7.72
2024-05-09T22:33:10.374Z,7.68
2024-05-09T22:35:41.105Z,7.55
2024-05-09T22:38:09.403Z,6.60
2024-05-09T22:40:46.484Z,7.22
2024-05-09T22:43:18.516Z,7.07
2024-05-09T22:48:15.328Z,10.82
2024-05-09T22:50:44.210Z,13.15
2024-05-09T22:53:12.190Z,11.90
2024-05-09T22:55:40.491Z,9.25
2024-05-09T22:58:08.505Z,7.28
2024-05-09T23:00:37.101Z,6.85
2024-05-09T23:03:05.221Z,6.90
2024-05-09T23:05:33.710Z,5.93
2024-05-09T23:08:02.520Z,5.25
2024-05-09T23:10:36.345Z,5.05
2024-05-09T23:13:09.269Z,5.70
2024-05-09T23:15:38.809Z,6.13
2024-05-09T23:18:07.359Z,5.63
2024-05-09T23:20:38.965Z,4.35
2024-05-09T23:23:08.974Z,5.20
2024-05-09T23:25:38.106Z,4.85
2024-05-09T23:28:06.694Z,4.95
2024-05-09T23:30:38.925Z,5.00
2024-05-09T23:33:10.456Z,5.22
2024-05-09T23:35:39.640Z,4.82
2024-05-09T23:38:07.837Z,4.55
2024-05-09T23:40:39.651Z,4.72
2024-05-09T23:43:10.401Z,4.43
2024-05-09T23:45:39.412Z,4.97
2024-05-09T23:48:07.869Z,4.47
2024-05-09T23:50:38.478Z,4.45
2024-05-09T23:53:09.416Z,4.80
2024-05-09T23:55:38.890Z,4.38
2024-05-09T23:58:07.532Z,4.95
